Time;durP1;ratioP1;P1;durP2;ratioP2;P2;SDS_P1;SDS_P2;PMS_P1;PMS_P2;Temp;Humidity;BMP_temperature;BMP_pressure;BME280_temperature;BME280_humidity;BME280_pressure;Samples;Min_cycle;Max_cycle;Signal;HPM_P1;HPM_P2
2022/11/10 00:01:07;;;;;;;11.18;2.45;;;10.20;99.90;;;;;;4986380;28;20064;-84
2022/11/10 00:03:33;;;;;;;14.05;2.83;;;10.00;99.90;;;;;;4976930;28;20434;-84
2022/11/10 00:06:04;;;;;;;11.13;2.78;;;10.00;99.90;;;;;;4994231;28;20058;-84
2022/11/10 00:08:30;;;;;;;13.95;2.85;;;10.00;99.90;;;;;;4993647;28;20076;-84
2022/11/10 00:10:56;;;;;;;13.85;2.72;;;10.00;99.90;;;;;;5008341;28;20356;-84
2022/11/10 00:13:30;;;;;;;10.93;2.38;;;10.00;99.90;;;;;;4989372;28;20539;-84
2022/11/10 00:18:45;;;;;;;12.88;2.85;;;9.90;99.90;;;;;;5007886;28;20073;-84
2022/11/10 00:21:12;;;;;;;12.05;2.50;;;9.90;99.90;;;;;;4991303;28;20500;-84
2022/11/10 00:23:38;;;;;;;11.60;2.65;;;9.90;99.90;;;;;;4972673;28;20573;-84
2022/11/10 00:26:14;;;;;;;15.10;3.03;;;9.90;99.90;;;;;;4961009;28;20038;-84
2022/11/10 00:28:40;;;;;;;13.80;3.00;;;;;;;;;;4981020;28;20054;-84
2022/11/10 00:31:06;;;;;;;17.73;3.10;;;9.80;99.90;;;;;;4980066;28;20066;-85
2022/11/10 00:33:36;;;;;;;15.02;2.85;;;10.10;99.90;;;;;;4989399;28;20046;-84
2022/11/10 00:36:03;;;;;;;12.60;3.08;;;9.80;99.90;;;;;;4993632;28;20445;-84
2022/11/10 00:38:28;;;;;;;11.90;2.83;;;9.80;99.90;;;;;;4994155;28;20053;-84
2022/11/10 00:40:54;;;;;;;16.25;3.15;;;9.80;99.90;;;;;;5007957;28;20042;-85
2022/11/10 00:43:19;;;;;;;13.60;2.75;;;9.80;99.90;;;;;;4992099;28;20038;-84
2022/11/10 00:45:46;;;;;;;13.95;3.35;;;9.80;99.90;;;;;;4992437;28;20042;-84
2022/11/10 00:48:11;;;;;;;11.50;2.85;;;9.80;99.90;;;;;;4981869;28;20586;-84
2022/11/10 00:50:37;;;;;;;16.70;3.15;;;9.80;99.90;;;;;;4976064;28;20042;-84
2022/11/10 00:53:03;;;;;;;16.70;3.63;;;9.80;99.90;;;;;;4992557;28;20042;-84
2022/11/10 00:55:29;;;;;;;14.00;3.45;;;10.10;99.90;;;;;;4975368;28;20073;-84
2022/11/10 00:57:54;;;;;;;10.45;2.60;;;9.90;99.90;;;;;;4977949;28;20064;-84
2022/11/10 01:00:20;;;;;;;17.67;3.50;;;10.00;99.90;;;;;;4991624;28;20415;-84
2022/11/10 01:02:46;;;;;;;17.55;3.60;;;9.90;99.90;;;;;;4992572;28;20064;-84
2022/11/10 01:05:12;;;;;;;14.13;3.20;;;9.90;99.90;;;;;;4970514;28;20511;-84
2022/11/10 01:07:37;;;;;;;17.10;3.58;;;9.90;99.90;;;;;;4979105;28;20045;-84
2022/11/10 01:10:04;;;;;;;15.48;3.28;;;9.90;99.90;;;;;;5018951;28;20161;-84
2022/11/10 01:12:30;;;;;;;13.98;3.00;;;9.90;99.90;;;;;;4982648;28;20041;-84
2022/11/10 01:14:56;;;;;;;13.27;3.40;;;9.90;99.90;;;;;;4997031;28;20490;-84
2022/11/10 01:17:22;;;;;;;15.85;3.42;;;9.90;99.90;;;;;;4990500;28;20112;-85
2022/11/10 01:19:47;;;;;;;13.05;3.25;;;9.90;99.90;;;;;;4997833;28;20134;-84
2022/11/10 01:22:13;;;;;;;14.40;3.08;;;10.00;99.90;;;;;;4972814;28;20042;-84
2022/11/10 01:24:39;;;;;;;12.75;3.20;;;9.90;99.90;;;;;;4972704;28;20045;-84
2022/11/10 01:27:04;;;;;;;13.90;3.38;;;9.90;99.90;;;;;;4987507;28;20096;-84
2022/11/10 01:29:30;;;;;;;14.20;3.35;;;9.90;99.90;;;;;;4992432;28;20045;-84
2022/11/10 01:31:56;;;;;;;18.35;3.50;;;9.90;99.90;;;;;;5004628;28;20052;-84
2022/11/10 01:34:21;;;;;;;15.40;3.67;;;9.80;99.90;;;;;;5007489;28;20120;-84
2022/11/10 01:36:47;;;;;;;16.73;3.78;;;9.90;99.90;;;;;;4990297;28;20137;-84
2022/11/10 01:39:13;;;;;;;14.23;3.13;;;9.90;99.90;;;;;;4974641;28;20077;-84
2022/11/10 01:41:38;;;;;;;17.77;4.00;;;9.80;99.90;;;;;;4974524;28;20038;-84
2022/11/10 01:44:17;;;;;;;11.82;3.50;;;9.80;99.90;;;;;;4975360;28;20241;-84
2022/11/10 01:46:42;;;;;;;12.07;3.83;;;9.80;99.90;;;;;;4984030;28;20037;-84
2022/11/10 01:49:09;;;;;;;19.13;3.88;;;10.70;99.90;;;;;;4972428;28;20049;-84
2022/11/10 01:51:50;;;;;;;16.90;4.22;;;9.80;99.90;;;;;;4975045;28;20121;-84
2022/11/10 01:54:31;;;;;;;16.75;4.25;;;9.80;99.90;;;;;;4990014;28;20046;-84
2022/11/10 01:57:01;;;;;;;18.33;4.82;;;9.80;99.90;;;;;;5003935;28;20292;-84
2022/11/10 01:59:31;;;;;;;13.75;4.18;;;9.80;99.90;;;;;;5008647;28;20069;-84
2022/11/10 02:02:05;;;;;;;14.23;4.10;;;9.80;99.90;;;;;;5008028;28;20093;-84
2022/11/10 02:04:32;;;;;;;19.08;4.15;;;9.80;99.90;;;;;;4990680;28;20558;-84
2022/11/10 02:06:58;;;;;;;15.20;4.57;;;10.10;99.90;;;;;;4964433;28;20068;-84
2022/11/10 02:09:24;;;;;;;20.10;4.43;;;9.80;99.90;;;;;;4975185;28;20133;-84
2022/11/10 02:11:53;;;;;;;13.48;4.25;;;9.70;99.90;;;;;;4975974;28;20042;-84
2022/11/10 02:14:18;;;;;;;15.02;4.18;;;9.70;99.90;;;;;;4992434;28;20136;-84
2022/11/10 02:16:44;;;;;;;15.48;4.63;;;10.00;99.90;;;;;;4978842;28;20546;-84
2022/11/10 02:19:17;;;;;;;18.95;4.72;;;9.70;99.90;;;;;;5012501;28;20049;-84
2022/11/10 02:21:42;;;;;;;17.27;5.18;;;9.70;99.90;;;;;;5006897;28;20042;-84
2022/11/10 02:24:08;;;;;;;23.45;5.80;;;9.90;99.90;;;;;;4971546;28;20178;-84
2022/11/10 02:26:36;;;;;;;16.67;4.82;;;9.70;99.90;;;;;;4976299;28;20065;-84
2022/11/10 02:29:02;;;;;;;20.05;5.15;;;9.70;99.90;;;;;;5005964;28;20045;-84
2022/11/10 02:31:28;;;;;;;15.00;5.15;;;9.70;99.90;;;;;;4978427;28;20055;-84
2022/11/10 02:33:53;;;;;;;18.10;5.32;;;9.70;99.90;;;;;;4983719;28;20046;-84
2022/11/10 02:36:19;;;;;;;18.92;5.18;;;9.70;99.90;;;;;;4986098;28;20539;-84
2022/11/10 02:38:44;;;;;;;20.92;5.00;;;9.70;99.90;;;;;;4972874;28;20088;-84
2022/11/10 02:41:10;;;;;;;21.17;5.07;;;9.70;99.90;;;;;;4974255;28;20074;-84
2022/11/10 02:43:37;;;;;;;19.88;5.47;;;9.70;99.90;;;;;;4991220;28;20038;-85
2022/11/10 02:46:03;;;;;;;17.25;5.43;;;9.70;99.90;;;;;;4991014;28;20103;-84
2022/11/10 02:48:28;;;;;;;19.90;4.95;;;9.70;99.90;;;;;;4978280;28;20041;-84
2022/11/10 02:50:54;;;;;;;18.67;5.55;;;10.30;99.90;;;;;;4971432;28;20033;-84
2022/11/10 02:53:20;;;;;;;15.05;5.15;;;9.60;99.90;;;;;;4975042;28;20053;-84
2022/11/10 02:55:46;;;;;;;16.55;5.22;;;9.60;99.90;;;;;;4982451;28;20040;-84
2022/11/10 02:58:12;;;;;;;17.17;5.28;;;10.30;99.90;;;;;;4966303;28;20132;-84
2022/11/10 03:00:37;;;;;;;13.85;4.85;;;9.70;99.90;;;;;;5005012;28;20121;-84
2022/11/10 03:03:03;;;;;;;18.23;5.18;;;9.60;99.90;;;;;;4991512;28;20091;-84
2022/11/10 03:05:30;;;;;;;16.27;5.13;;;9.60;99.90;;;;;;4955372;28;20039;-84
2022/11/10 03:07:59;;;;;;;15.93;5.15;;;9.60;99.90;;;;;;4979499;28;20081;-84
2022/11/10 03:10:26;;;;;;;18.65;5.45;;;9.70;99.90;;;;;;4987005;28;20041;-84
2022/11/10 03:13:00;;;;;;;21.05;5.72;;;9.60;99.90;;;;;;4968896;28;20453;-84
2022/11/10 03:15:27;;;;;;;22.48;5.68;;;9.70;99.90;;;;;;4994926;28;20495;-84
2022/11/10 03:17:53;;;;;;;20.02;5.07;;;9.60;99.90;;;;;;5008382;28;20096;-84
2022/11/10 03:20:19;;;;;;;21.05;5.85;;;9.60;99.90;;;;;;4993260;28;20033;-84
2022/11/10 03:22:45;;;;;;;19.40;5.35;;;9.90;99.90;;;;;;4977189;28;20356;-84
2022/11/10 03:25:11;;;;;;;21.80;6.00;;;9.60;99.90;;;;;;4977385;28;20081;-84
2022/11/10 03:27:37;;;;;;;17.63;5.22;;;9.60;99.90;;;;;;4988431;28;20046;-84
2022/11/10 03:30:04;;;;;;;16.52;4.88;;;9.60;99.90;;;;;;4993840;28;20045;-84
2022/11/10 03:32:30;;;;;;;20.00;6.10;;;9.60;99.90;;;;;;4990918;28;20053;-84
2022/11/10 03:34:56;;;;;;;20.77;5.72;;;9.60;99.90;;;;;;4983611;28;20053;-84
2022/11/10 03:37:22;;;;;;;19.10;5.00;;;10.80;99.90;;;;;;4975887;28;20069;-84
2022/11/10 03:39:47;;;;;;;18.17;5.05;;;9.60;99.90;;;;;;4985990;28;20046;-84
2022/11/10 03:42:13;;;;;;;19.45;5.55;;;9.60;99.90;;;;;;4973796;28;20467;-84
2022/11/10 03:44:39;;;;;;;16.55;4.90;;;9.60;99.90;;;;;;4976741;28;20073;-84
2022/11/10 03:47:04;;;;;;;21.10;5.22;;;9.60;99.90;;;;;;4956914;28;20044;-84
2022/11/10 03:49:30;;;;;;;19.92;5.57;;;9.60;99.90;;;;;;4993675;28;20046;-84
2022/11/10 03:51:56;;;;;;;15.30;4.45;;;9.60;99.90;;;;;;4980005;28;20125;-84
2022/11/10 03:54:22;;;;;;;17.00;4.85;;;9.60;99.90;;;;;;4990319;28;20092;-84
2022/11/10 03:56:48;;;;;;;20.15;4.95;;;9.60;99.90;;;;;;5008789;28;20052;-84
2022/11/10 03:59:13;;;;;;;15.60;4.55;;;9.60;99.90;;;;;;4992498;28;20541;-84
2022/11/10 04:01:39;;;;;;;15.05;4.72;;;9.60;99.90;;;;;;4992432;28;20516;-84
2022/11/10 04:08:57;;;;;;;17.88;4.97;;;9.60;99.90;;;;;;4989997;28;20172;-84
2022/11/10 04:09:35;;;;;;;20.75;4.88;;;9.60;99.90;;;;;;5010433;28;20095;-84
2022/11/10 04:17:30;;;;;;;19.65;5.57;;;9.60;99.90;;;;;;4981304;28;20049;-84
2022/11/10 04:19:55;;;;;;;18.05;4.72;;;9.60;99.90;;;;;;5008356;28;20046;-84
2022/11/10 04:23:25;;;;;;;21.95;5.45;;;9.60;99.90;;;;;;4987450;28;20470;-84
2022/11/10 04:25:07;;;;;;;20.88;5.35;;;9.60;99.90;;;;;;5002317;28;20460;-84
2022/11/10 04:27:33;;;;;;;18.98;5.03;;;9.60;99.90;;;;;;4974375;28;20044;-84
2022/11/10 04:29:58;;;;;;;19.10;5.97;;;9.50;99.90;;;;;;4989629;28;20048;-84
2022/11/10 04:32:24;;;;;;;15.88;5.13;;;9.60;99.90;;;;;;4974550;28;20305;-84
2022/11/10 04:34:50;;;;;;;21.20;5.90;;;9.70;99.90;;;;;;4993793;28;20049;-84
2022/11/10 04:37:16;;;;;;;23.80;6.05;;;9.60;99.90;;;;;;4994276;28;20042;-84
2022/11/10 04:39:41;;;;;;;18.27;6.03;;;9.60;99.90;;;;;;4990454;28;20124;-84
2022/11/10 04:42:07;;;;;;;17.48;5.63;;;9.60;99.90;;;;;;4973751;28;20038;-84
2022/11/10 04:44:33;;;;;;;16.00;5.60;;;10.00;99.90;;;;;;4978253;28;20049;-84
2022/11/10 04:46:58;;;;;;;18.77;5.70;;;9.60;99.90;;;;;;4972015;28;20491;-84
2022/11/10 04:49:24;;;;;;;22.90;6.63;;;9.70;99.90;;;;;;4976138;28;20049;-84
2022/11/10 04:51:49;;;;;;;22.88;6.97;;;10.60;99.90;;;;;;4983413;28;20044;-84
2022/11/10 04:54:15;;;;;;;20.55;6.60;;;10.70;99.90;;;;;;4990333;28;20117;-84
2022/11/10 04:56:41;;;;;;;21.15;6.30;;;9.70;99.90;;;;;;4993086;28;20083;-84
2022/11/10 04:59:07;;;;;;;24.55;6.30;;;9.60;99.90;;;;;;4989402;28;20435;-84
2022/11/10 05:01:32;;;;;;;26.63;7.47;;;9.90;99.90;;;;;;4986894;28;20046;-84
2022/11/10 05:03:58;;;;;;;23.55;6.75;;;9.70;99.90;;;;;;4988539;28;20033;-84
2022/11/10 05:06:24;;;;;;;21.65;6.55;;;9.60;99.90;;;;;;5006692;28;20066;-84
2022/11/10 05:08:50;;;;;;;17.73;6.18;;;9.70;99.90;;;;;;4993073;28;20045;-84
2022/11/10 05:11:16;;;;;;;20.08;6.57;;;9.70;99.90;;;;;;4990186;28;20422;-84
2022/11/10 05:13:43;;;;;;;24.55;6.65;;;9.90;99.90;;;;;;5007991;28;20092;-84
2022/11/10 05:16:09;;;;;;;21.15;6.50;;;9.70;99.90;;;;;;4985132;28;20037;-84
2022/11/10 05:18:35;;;;;;;21.50;5.90;;;9.70;99.90;;;;;;4987076;28;20045;-84
2022/11/10 05:21:01;;;;;;;26.08;6.72;;;9.70;99.90;;;;;;4991718;28;20034;-85
2022/11/10 05:23:39;;;;;;;21.52;6.22;;;9.70;99.90;;;;;;4994299;28;20045;-84
2022/11/10 05:26:09;;;;;;;18.80;6.07;;;9.70;99.90;;;;;;4982780;28;20044;-84
2022/11/10 05:28:35;;;;;;;18.98;6.35;;;9.70;99.90;;;;;;4999834;28;20404;-84
2022/11/10 05:31:01;;;;;;;27.88;6.35;;;9.70;99.90;;;;;;4965999;28;20676;-84
2022/11/10 05:33:27;;;;;;;22.20;6.20;;;9.80;99.90;;;;;;5008182;28;20117;-84
2022/11/10 05:35:53;;;;;;;22.95;6.57;;;9.80;99.90;;;;;;4989909;28;20562;-84
2022/11/10 05:38:19;;;;;;;18.45;6.32;;;9.80;99.90;;;;;;4990863;28;20397;-84
2022/11/10 05:40:44;;;;;;;24.13;6.03;;;9.80;99.90;;;;;;4980537;28;20466;-83
2022/11/10 05:43:10;;;;;;;17.85;5.72;;;9.80;99.90;;;;;;4974275;28;20056;-84
2022/11/10 05:45:36;;;;;;;21.45;5.45;;;9.80;99.90;;;;;;4982243;28;20042;-83
2022/11/10 05:48:02;;;;;;;19.80;5.72;;;9.80;99.90;;;;;;4990030;28;20375;-83
2022/11/10 05:50:28;;;;;;;23.02;5.70;;;9.80;99.90;;;;;;4989065;28;20041;-84
2022/11/10 05:52:54;;;;;;;23.27;5.70;;;9.90;99.90;;;;;;4978930;28;20084;-84
2022/11/10 05:55:26;;;;;;;18.95;5.20;;;9.90;99.90;;;;;;5002432;28;20046;-84
2022/11/10 05:57:54;;;;;;;20.80;5.47;;;9.90;99.90;;;;;;4997670;28;20042;-84
2022/11/10 06:00:26;;;;;;;19.40;5.50;;;9.90;99.90;;;;;;4992066;28;20052;-83
2022/11/10 06:03:03;;;;;;;26.25;5.90;;;9.90;99.90;;;;;;4990905;28;20156;-83
2022/11/10 06:05:31;;;;;;;18.90;5.55;;;9.90;99.90;;;;;;4985612;28;20038;-83
2022/11/10 06:07:57;;;;;;;22.73;5.22;;;9.90;99.90;;;;;;4990015;28;20057;-83
2022/11/10 06:10:23;;;;;;;21.08;5.47;;;9.90;99.90;;;;;;5016914;28;20057;-84
2022/11/10 06:12:49;;;;;;;20.13;5.40;;;10.10;99.90;;;;;;5028409;28;20115;-84
2022/11/10 06:15:15;;;;;;;19.25;5.18;;;9.90;99.90;;;;;;4972516;28;20042;-84
2022/11/10 06:17:42;;;;;;;20.17;5.57;;;9.90;99.90;;;;;;4958855;28;20116;-84
2022/11/10 06:20:09;;;;;;;24.05;5.30;;;9.90;99.90;;;;;;4991066;28;20045;-84
2022/11/10 06:22:34;;;;;;;20.05;5.10;;;9.90;99.90;;;;;;4991872;28;20037;-84
2022/11/10 06:25:00;;;;;;;22.95;5.00;;;9.90;99.90;;;;;;4971793;28;20042;-84
2022/11/10 06:27:26;;;;;;;17.00;4.90;;;9.90;99.90;;;;;;4970749;28;20508;-83
2022/11/10 06:29:51;;;;;;;20.42;4.90;;;9.90;99.90;;;;;;4999265;28;20037;-83
2022/11/10 06:32:17;;;;;;;22.13;5.45;;;10.50;99.90;;;;;;4972866;28;20082;-84
2022/11/10 06:34:43;;;;;;;23.00;5.00;;;10.00;99.90;;;;;;4991981;28;20041;-84
2022/11/10 06:37:08;;;;;;;21.48;4.60;;;10.00;99.90;;;;;;4986917;28;20057;-83
2022/11/10 06:39:34;;;;;;;22.35;4.88;;;10.00;99.90;;;;;;5027840;28;20129;-84
2022/11/10 06:42:00;;;;;;;19.83;4.95;;;10.00;99.90;;;;;;4977568;28;20038;-83
2022/11/10 06:44:25;;;;;;;26.27;5.38;;;10.00;99.90;;;;;;4991115;28;20582;-84
2022/11/10 06:46:51;;;;;;;22.90;5.00;;;10.70;99.90;;;;;;4972671;28;20043;-83
2022/11/10 06:49:17;;;;;;;22.08;5.40;;;10.10;99.90;;;;;;4974101;28;20040;-84
2022/11/10 06:51:43;;;;;;;20.95;4.57;;;10.40;99.90;;;;;;4990726;28;20120;-83
2022/11/10 06:54:09;;;;;;;21.25;5.05;;;10.10;99.90;;;;;;4975749;28;20054;-84
2022/11/10 06:56:34;;;;;;;19.63;5.22;;;10.20;99.90;;;;;;4972251;28;20049;-83
2022/11/10 06:59:00;;;;;;;18.27;5.53;;;10.10;99.90;;;;;;4987490;28;20053;-84
2022/11/10 07:01:26;;;;;;;20.60;5.18;;;10.20;99.90;;;;;;4988616;28;20038;-84
2022/11/10 07:03:52;;;;;;;20.35;5.18;;;10.20;99.90;;;;;;4990920;28;20030;-83
2022/11/10 07:06:19;;;;;;;24.23;5.75;;;10.20;99.90;;;;;;4966413;28;20056;-84
2022/11/10 07:08:46;;;;;;;23.30;5.50;;;10.20;99.90;;;;;;5027629;28;20040;-83
2022/11/10 07:11:11;;;;;;;22.33;5.45;;;10.40;99.90;;;;;;5006858;28;20125;-83
2022/11/10 07:13:37;;;;;;;22.67;5.38;;;10.20;99.90;;;;;;4971815;28;20208;-83
2022/11/10 07:16:04;;;;;;;22.38;5.43;;;10.20;99.90;;;;;;4989589;28;20088;-83
2022/11/10 07:18:30;;;;;;;18.17;6.05;;;10.30;99.90;;;;;;4972180;28;20047;-83
2022/11/10 07:20:56;;;;;;;19.92;5.50;;;10.30;99.90;;;;;;4989528;28;20282;-83
2022/11/10 07:23:21;;;;;;;18.98;5.95;;;10.30;99.90;;;;;;5005974;28;20502;-83
2022/11/10 07:25:47;;;;;;;24.65;6.15;;;10.30;99.90;;;;;;4972734;28;20033;-83
2022/11/10 07:28:13;;;;;;;20.88;5.78;;;10.30;99.90;;;;;;4972298;28;20132;-83
2022/11/10 07:30:40;;;;;;;25.00;6.38;;;10.50;99.90;;;;;;4992350;28;20038;-83
2022/11/10 07:33:12;;;;;;;19.88;5.75;;;10.30;99.90;;;;;;4999881;28;20041;-83
2022/11/10 07:35:38;;;;;;;20.42;5.60;;;10.30;99.90;;;;;;4974645;28;20056;-83
2022/11/10 07:38:07;;;;;;;21.60;5.97;;;10.30;99.90;;;;;;5007413;28;20042;-83
2022/11/10 07:40:33;;;;;;;17.75;5.53;;;10.70;99.90;;;;;;4990999;28;20510;-83
2022/11/10 07:42:59;;;;;;;24.10;6.15;;;10.30;99.90;;;;;;5007898;28;20051;-83
2022/11/10 07:45:26;;;;;;;22.30;5.60;;;10.30;99.90;;;;;;4990338;28;21181;-83
2022/11/10 07:47:56;;;;;;;23.60;5.35;;;10.40;99.90;;;;;;5007074;28;20494;-83
2022/11/10 07:50:22;;;;;;;20.40;5.53;;;10.30;99.90;;;;;;4993294;28;20052;-83
2022/11/10 07:52:48;;;;;;;18.90;5.20;;;10.30;99.90;;;;;;4992568;28;20038;-83
2022/11/10 07:55:13;;;;;;;19.13;5.03;;;10.40;99.90;;;;;;4968653;28;20034;-83
2022/11/10 07:57:39;;;;;;;26.52;5.72;;;10.40;99.90;;;;;;4966277;28;20067;-83
2022/11/10 08:00:06;;;;;;;25.42;5.30;;;10.40;99.90;;;;;;5005080;28;20045;-83
2022/11/10 08:02:31;;;;;;;23.67;5.38;;;10.40;99.90;;;;;;4970092;28;20202;-83
2022/11/10 08:04:57;;;;;;;19.83;5.82;;;10.40;99.90;;;;;;4967407;28;20129;-83
2022/11/10 08:07:23;;;;;;;22.08;5.72;;;10.50;99.90;;;;;;4983518;28;20066;-83
2022/11/10 08:09:49;;;;;;;23.90;5.30;;;10.40;99.90;;;;;;4998082;28;20052;-83
2022/11/10 08:12:15;;;;;;;19.85;5.78;;;10.40;99.90;;;;;;5030746;28;20041;-83
2022/11/10 08:14:40;;;;;;;19.10;5.63;;;10.50;99.90;;;;;;4990529;28;20142;-83
2022/11/10 08:17:06;;;;;;;23.75;5.78;;;10.50;99.90;;;;;;4992797;28;20304;-83
2022/11/10 08:19:32;;;;;;;22.58;5.90;;;10.40;99.90;;;;;;5010711;28;20041;-83
2022/11/10 08:21:57;;;;;;;21.05;5.28;;;10.50;99.90;;;;;;4974767;28;20053;-83
2022/11/10 08:24:23;;;;;;;20.65;5.70;;;10.50;99.90;;;;;;4963227;28;20096;-84
2022/11/10 08:26:49;;;;;;;25.00;5.57;;;11.00;99.90;;;;;;4974871;28;20045;-83
2022/11/10 08:29:14;;;;;;;19.05;5.28;;;10.60;99.90;;;;;;4971861;28;20124;-84
2022/11/10 08:31:40;;;;;;;19.58;6.13;;;10.70;99.90;;;;;;4967132;28;20053;-83
2022/11/10 08:34:06;;;;;;;24.38;6.00;;;10.80;99.90;;;;;;4993675;28;20049;-83
2022/11/10 08:36:31;;;;;;;16.63;5.10;;;10.90;99.90;;;;;;4964137;28;20495;-83
2022/11/10 08:38:57;;;;;;;24.75;5.90;;;10.90;99.90;;;;;;4970244;28;20058;-83
2022/11/10 08:41:23;;;;;;;17.13;5.32;;;11.00;99.90;;;;;;4985869;28;20037;-83
2022/11/10 08:43:48;;;;;;;20.83;5.72;;;11.00;99.90;;;;;;4997437;28;20037;-83
2022/11/10 08:46:14;;;;;;;22.27;5.78;;;11.10;99.90;;;;;;5008706;28;20046;-83
2022/11/10 08:48:40;;;;;;;19.88;5.50;;;11.20;99.90;;;;;;4978371;28;20180;-83
2022/11/10 08:51:05;;;;;;;23.67;6.68;;;11.30;99.90;;;;;;4967859;28;20496;-83
2022/11/10 08:53:31;;;;;;;20.73;5.20;;;11.30;99.90;;;;;;4993666;28;20042;-83
2022/11/10 08:56:00;;;;;;;21.17;5.70;;;11.30;99.90;;;;;;4988696;28;20037;-83
2022/11/10 08:58:26;;;;;;;19.98;4.85;;;11.40;99.90;;;;;;4960412;28;20037;-83
2022/11/10 09:00:52;;;;;;;21.40;5.80;;;11.30;99.90;;;;;;4991551;28;20046;-83
2022/11/10 09:03:22;;;;;;;24.92;5.57;;;11.40;99.90;;;;;;4974012;28;20117;-83
2022/11/10 09:05:50;;;;;;;21.35;5.55;;;11.40;99.90;;;;;;5009921;28;20136;-84
2022/11/10 09:08:16;;;;;;;20.92;4.75;;;11.40;99.90;;;;;;4990943;28;20479;-83
2022/11/10 09:10:44;;;;;;;19.38;5.65;;;11.50;99.90;;;;;;4987474;28;20052;-83
2022/11/10 09:13:12;;;;;;;19.48;5.18;;;11.50;99.90;;;;;;5003506;28;20046;-84
2022/11/10 09:15:38;;;;;;;19.20;5.82;;;11.60;99.90;;;;;;4985762;28;20048;-83
2022/11/10 09:18:05;;;;;;;21.27;5.18;;;11.70;99.90;;;;;;4983726;28;20050;-84
2022/11/10 09:20:33;;;;;;;20.77;5.00;;;11.70;99.90;;;;;;4973907;28;20074;-84
2022/11/10 09:23:14;;;;;;;15.57;4.97;;;11.80;99.90;;;;;;5006162;28;20233;-83
2022/11/10 09:25:41;;;;;;;19.60;5.57;;;11.90;99.90;;;;;;4991315;28;20509;-83
2022/11/10 09:28:14;;;;;;;18.15;4.78;;;12.00;99.90;;;;;;4992395;28;20038;-83
2022/11/10 09:30:40;;;;;;;22.27;4.75;;;12.00;99.90;;;;;;4993350;28;20053;-83
2022/11/10 09:33:07;;;;;;;19.48;5.00;;;12.20;99.90;;;;;;4979835;28;20045;-84
2022/11/10 09:35:32;;;;;;;17.40;4.80;;;12.10;99.90;;;;;;5026961;28;20037;-84
2022/11/10 09:37:58;;;;;;;17.50;4.72;;;12.20;99.90;;;;;;4992724;28;20045;-84
2022/11/10 09:40:53;;;;;;;23.20;5.30;;;12.20;99.90;;;;;;4996099;28;20041;-83
2022/11/10 09:43:31;;;;;;;19.98;5.10;;;12.20;99.90;;;;;;5006805;28;20049;-84
2022/11/10 09:46:02;;;;;;;21.88;5.40;;;12.20;99.90;;;;;;4989231;28;20050;-85
2022/11/10 09:48:31;;;;;;;19.45;4.95;;;12.30;99.90;;;;;;4996712;28;20100;-83
2022/11/10 09:51:13;;;;;;;22.45;5.55;;;12.30;99.90;;;;;;5002589;28;20041;-84
2022/11/10 09:53:54;;;;;;;19.50;5.63;;;12.40;99.90;;;;;;5011485;28;20076;-84
2022/11/10 09:56:35;;;;;;;22.23;5.72;;;12.40;99.90;;;;;;4990629;28;20057;-83
2022/11/10 09:59:17;;;;;;;24.35;6.53;;;12.40;99.90;;;;;;5020029;28;20453;-83
2022/11/10 10:01:48;;;;;;;21.23;5.80;;;12.50;99.90;;;;;;4979998;28;20048;-84
2022/11/10 10:04:28;;;;;;;21.25;5.75;;;12.50;99.90;;;;;;5008761;28;20093;-83
2022/11/10 10:07:19;;;;;;;19.55;5.93;;;12.50;99.90;;;;;;4995603;28;20121;-83
2022/11/10 10:09:59;;;;;;;20.50;6.40;;;12.50;99.90;;;;;;4992417;28;20049;-84
2022/11/10 10:12:43;;;;;;;23.20;5.78;;;12.50;99.90;;;;;;4990633;28;20045;-84
2022/11/10 10:15:34;;;;;;;25.50;6.55;;;12.50;99.90;;;;;;5006977;28;20050;-84
2022/11/10 10:18:24;;;;;;;17.23;5.63;;;12.60;99.90;;;;;;4996123;28;20407;-84
2022/11/10 10:20:59;;;;;;;17.30;5.53;;;12.60;99.90;;;;;;4991089;28;20060;-84
2022/11/10 10:23:36;;;;;;;18.10;5.20;;;12.50;99.90;;;;;;5006961;28;20042;-84
2022/11/10 10:26:02;;;;;;;21.42;5.85;;;12.60;99.90;;;;;;5008365;28;20034;-84
2022/11/10 10:28:36;;;;;;;22.15;5.43;;;12.60;99.90;;;;;;4991772;28;20557;-84
2022/11/10 10:31:23;;;;;;;20.65;5.25;;;12.60;99.90;;;;;;5008248;28;20125;-84
2022/11/10 10:33:50;;;;;;;18.42;4.57;;;12.60;99.90;;;;;;4990731;28;20049;-83
2022/11/10 10:36:23;;;;;;;21.98;5.10;;;12.70;99.90;;;;;;5008407;28;20303;-83
2022/11/10 10:38:53;;;;;;;20.77;4.88;;;12.70;99.90;;;;;;5006833;28;20049;-84
2022/11/10 10:41:28;;;;;;;18.20;5.40;;;12.70;99.90;;;;;;5008440;28;20507;-83
2022/11/10 10:43:56;;;;;;;20.60;5.03;;;12.60;99.90;;;;;;4990159;28;20037;-84
2022/11/10 10:46:26;;;;;;;19.90;4.78;;;12.70;99.90;;;;;;5000205;28;20045;-84
2022/11/10 10:49:19;;;;;;;20.98;5.35;;;12.70;99.90;;;;;;5011438;28;20033;-84
2022/11/10 10:51:45;;;;;;;17.75;5.00;;;12.80;99.90;;;;;;5011475;28;20041;-84
2022/11/10 10:54:25;;;;;;;18.85;4.82;;;12.90;99.90;;;;;;4997202;28;20046;-83
2022/11/10 10:57:20;;;;;;;19.20;5.15;;;13.00;99.90;;;;;;4990432;28;20046;-83
2022/11/10 10:59:46;;;;;;;19.17;5.10;;;13.10;99.90;;;;;;4991280;28;20053;-84
2022/11/10 11:02:24;;;;;;;16.50;5.53;;;13.20;99.90;;;;;;4977729;28;20034;-84
2022/11/10 11:05:10;;;;;;;19.17;4.72;;;13.20;99.90;;;;;;5010006;28;20046;-83
2022/11/10 11:07:37;;;;;;;20.33;5.00;;;13.30;99.90;;;;;;5007069;28;20054;-83
2022/11/10 11:10:22;;;;;;;18.02;4.90;;;13.30;99.90;;;;;;4991641;28;20042;-83
2022/11/10 11:12:47;;;;;;;23.58;4.60;;;13.30;99.90;;;;;;4990355;28;20431;-83
2022/11/10 11:15:27;;;;;;;19.92;5.10;;;13.30;99.90;;;;;;4991668;28;20301;-84
2022/11/10 11:18:01;;;;;;;15.93;5.15;;;13.30;99.90;;;;;;4991590;28;20042;-84
2022/11/10 11:20:51;;;;;;;19.70;4.97;;;13.30;99.90;;;;;;4990871;28;20042;-84
2022/11/10 11:23:48;;;;;;;21.25;5.40;;;13.30;99.90;;;;;;4989890;28;20117;-84
2022/11/10 11:26:23;;;;;;;17.67;4.80;;;13.20;99.90;;;;;;4992623;28;20070;-84
2022/11/10 11:28:57;;;;;;;18.65;5.63;;;13.30;99.90;;;;;;4991607;28;20073;-84
2022/11/10 11:31:44;;;;;;;18.15;5.85;;;13.30;99.90;;;;;;4986282;28;20457;-84
2022/11/10 11:34:39;;;;;;;20.67;5.88;;;13.30;99.90;;;;;;4993502;28;20518;-84
2022/11/10 11:37:17;;;;;;;20.02;5.88;;;13.30;99.90;;;;;;4991177;28;20045;-84
2022/11/10 11:40:23;;;;;;;22.65;5.97;;;13.20;99.90;;;;;;4992734;28;20495;-84
2022/11/10 11:43:18;;;;;;;19.52;5.63;;;13.20;99.90;;;;;;4994358;28;20042;-84
2022/11/10 11:46:09;;;;;;;23.73;5.80;;;13.20;99.90;;;;;;5000517;28;20037;-84
2022/11/10 11:48:41;;;;;;;22.55;5.95;;;13.20;99.90;;;;;;5014631;28;20041;-85
2022/11/10 11:51:14;;;;;;;;;;;13.20;99.90;;;;;;5015296;28;20041;-84
2022/11/10 11:54:02;;;;;;;18.73;5.50;;;13.30;99.90;;;;;;5014619;28;19925;-84
2022/11/10 11:56:32;;;;;;;19.25;5.28;;;13.30;99.90;;;;;;4992064;28;20360;-84
2022/11/10 11:59:19;;;;;;;20.88;5.28;;;13.30;99.90;;;;;;4998795;28;20120;-84
2022/11/10 12:02:15;;;;;;;21.60;5.57;;;13.40;99.90;;;;;;4994629;28;20491;-84
2022/11/10 12:05:13;;;;;;;22.55;5.47;;;13.40;99.90;;;;;;4993567;28;20068;-84
2022/11/10 12:07:54;;;;;;;18.48;3.67;;;13.40;99.90;;;;;;4972281;28;20060;-84
2022/11/10 12:10:53;;;;;;;19.92;4.72;;;13.40;99.90;;;;;;5030295;28;20091;-84
2022/11/10 12:13:57;;;;;;;19.02;4.30;;;13.40;99.90;;;;;;5030822;28;20612;-84
2022/11/10 12:16:29;;;;;;;19.92;4.57;;;13.40;99.90;;;;;;4997245;28;20446;-85
2022/11/10 12:19:18;;;;;;;20.50;4.90;;;13.40;99.90;;;;;;5014346;28;20155;-85
2022/11/10 12:22:19;;;;;;;18.73;4.05;;;13.40;99.90;;;;;;5030573;28;20104;-84
2022/11/10 12:25:12;;;;;;;19.50;4.38;;;13.30;99.90;;;;;;5012340;28;20713;-84
2022/11/10 12:27:46;;;;;;;18.77;4.13;;;13.50;99.90;;;;;;4999147;28;20514;-83
2022/11/10 12:30:15;;;;;;;19.40;4.47;;;13.30;99.90;;;;;;4999221;28;20049;-84
2022/11/10 12:32:48;;;;;;;16.52;3.67;;;13.30;99.90;;;;;;4987258;28;20527;-84
2022/11/10 12:35:21;;;;;;;20.67;4.50;;;13.30;99.90;;;;;;5010650;28;20038;-84
2022/11/10 12:37:50;;;;;;;17.20;3.67;;;13.40;99.90;;;;;;4993189;28;20076;-84
2022/11/10 12:40:37;;;;;;;20.73;3.83;;;13.40;99.90;;;;;;4992257;28;20415;-83
2022/11/10 12:43:33;;;;;;;21.35;4.10;;;13.40;99.90;;;;;;5006959;28;20112;-84
2022/11/10 12:46:06;;;;;;;18.60;4.32;;;13.40;99.90;;;;;;5009847;28;20423;-83
2022/11/10 12:48:44;;;;;;;16.63;3.75;;;13.40;99.90;;;;;;5009587;28;20044;-83
2022/11/10 12:51:10;;;;;;;17.08;3.72;;;13.40;99.90;;;;;;5009615;28;20572;-84
2022/11/10 12:53:39;;;;;;;19.45;3.90;;;13.40;99.90;;;;;;5001124;28;20046;-84
2022/11/10 12:56:16;;;;;;;16.50;3.90;;;13.40;99.90;;;;;;4990398;28;20052;-84
2022/11/10 12:58:42;;;;;;;21.45;4.35;;;13.50;99.90;;;;;;5024659;28;20402;-84
2022/11/10 13:01:17;;;;;;;18.23;3.47;;;13.50;99.90;;;;;;4975825;28;20042;-84
2022/11/10 13:03:59;;;;;;;20.13;4.65;;;13.50;99.90;;;;;;5006187;28;20088;-84
2022/11/10 13:06:29;;;;;;;17.25;3.83;;;13.50;99.90;;;;;;5009808;28;20038;-84